createdAt,value
2022-11-03T11:07:52.317Z,20.57
2022-11-03T11:10:25.820Z,20.64
2022-11-03T11:13:07.831Z,20.22
2022-11-03T11:15:41.721Z,20.66
2022-11-03T11:18:12.386Z,20.50
2022-11-03T11:20:44.095Z,20.46
2022-11-03T11:23:49.862Z,20.68
2022-11-03T11:26:37.403Z,20.72
2022-11-03T11:29:46.572Z,20.67
2022-11-03T11:32:46.264Z,20.57
2022-11-03T11:35:21.860Z,20.46
2022-11-03T11:37:52.103Z,20.43
2022-11-03T11:40:53.340Z,20.29
2022-11-03T11:43:32.363Z,20.48
2022-11-03T11:46:41.362Z,20.38
2022-11-03T11:49:21.032Z,20.32
2022-11-03T11:51:51.299Z,20.26
2022-11-03T11:54:23.771Z,20.31
2022-11-03T11:56:53.861Z,20.46
2022-11-03T11:59:27.492Z,20.43
2022-11-03T12:01:59.681Z,20.22
2022-11-03T12:04:33.522Z,20.22
2022-11-03T12:07:03.577Z,20.36
2022-11-03T12:09:33.795Z,20.27
2022-11-03T12:12:08.667Z,20.50
2022-11-03T12:14:42.371Z,20.20
2022-11-03T12:17:37.072Z,20.19
2022-11-03T12:20:36.759Z,20.00
2022-11-03T12:23:06.816Z,20.13
2022-11-03T12:25:40.415Z,19.79
2022-11-03T12:28:10.653Z,20.00
2022-11-03T12:30:43.405Z,20.02
2022-11-03T12:33:13.468Z,19.92
2022-11-03T12:35:43.647Z,20.06
2022-11-03T12:38:13.695Z,20.15
2022-11-03T12:40:43.720Z,20.11
2022-11-03T12:43:13.717Z,20.14
2022-11-03T12:45:46.573Z,20.15
2022-11-03T12:48:16.614Z,20.08
2022-11-03T12:50:46.660Z,20.26
2022-11-03T12:53:16.709Z,20.15
2022-11-03T12:55:46.733Z,20.23
2022-11-03T12:58:16.795Z,20.26
2022-11-03T13:00:53.801Z,20.22
2022-11-03T13:03:25.250Z,19.97
2022-11-03T13:05:55.672Z,19.84
2022-11-03T13:08:25.849Z,19.81
2022-11-03T13:10:56.000Z,20.11
2022-11-03T13:13:26.065Z,19.97
2022-11-03T13:15:58.669Z,20.20
2022-11-03T13:18:28.744Z,19.96
2022-11-03T13:20:58.786Z,20.07
2022-11-03T13:23:28.789Z,20.13
2022-11-03T13:25:58.916Z,20.22
2022-11-03T13:28:29.240Z,19.68
2022-11-03T13:31:01.877Z,19.87
2022-11-03T13:33:31.907Z,19.80
2022-11-03T13:36:02.013Z,19.97
2022-11-03T13:38:32.102Z,20.01
2022-11-03T13:41:08.170Z,20.14
2022-11-03T13:43:38.978Z,20.73
2022-11-03T13:46:13.080Z,20.87
2022-11-03T13:51:33.545Z,20.46
2022-11-03T13:59:43.616Z,21.16
2022-11-03T14:05:10.306Z,21.00
2022-11-03T14:07:41.416Z,20.45
2022-11-03T14:10:12.545Z,20.60
2022-11-03T14:12:42.617Z,20.52
2022-11-03T14:15:14.569Z,20.62
2022-11-03T14:17:47.216Z,20.34
2022-11-03T14:20:17.465Z,20.46
2022-11-03T14:22:47.547Z,20.36
2022-11-03T14:25:20.335Z,20.33
2022-11-03T14:27:50.994Z,20.15
2022-11-03T14:30:21.269Z,19.85
2022-11-03T14:32:59.200Z,19.77
2022-11-03T14:35:29.700Z,19.39
2022-11-03T14:37:59.693Z,19.60
2022-11-03T14:40:42.059Z,19.59
2022-11-03T14:43:12.062Z,19.54
2022-11-03T14:45:42.780Z,19.41
2022-11-03T14:48:15.608Z,19.32
2022-11-03T14:50:45.693Z,18.95
2022-11-03T14:53:15.894Z,19.00
2022-11-03T14:55:45.999Z,18.85
2022-11-03T14:58:16.068Z,18.79
2022-11-03T15:00:46.152Z,18.91
2022-11-03T15:03:18.928Z,18.87
2022-11-03T15:05:49.449Z,18.76
2022-11-03T15:08:21.142Z,18.69
2022-11-03T15:10:51.516Z,18.81
2022-11-03T15:13:21.657Z,18.68
2022-11-03T15:15:51.705Z,18.70
2022-11-03T15:18:24.516Z,18.51
2022-11-03T15:20:54.653Z,18.52
2022-11-03T15:26:15.094Z,18.49
2022-11-03T15:28:45.304Z,18.44
2022-11-03T15:31:15.347Z,18.51
2022-11-03T15:33:48.024Z,18.48
2022-11-03T15:36:18.227Z,18.45
2022-11-03T15:38:48.368Z,18.39
2022-11-03T15:41:19.592Z,18.41
2022-11-03T15:43:51.295Z,18.33
2022-11-03T15:46:21.883Z,18.46
2022-11-03T15:48:54.724Z,18.43
2022-11-03T15:51:24.743Z,18.38
2022-11-03T15:53:58.413Z,18.30
2022-11-03T15:56:28.816Z,18.39
2022-11-03T15:58:58.872Z,18.44
2022-11-03T16:01:29.627Z,18.44
2022-11-03T16:04:02.418Z,18.31
2022-11-03T16:07:01.797Z,18.42
2022-11-03T16:09:22.784Z,18.25
2022-11-03T16:11:52.823Z,18.36
2022-11-03T16:14:22.843Z,18.37
2022-11-03T16:16:52.913Z,18.39
2022-11-03T16:19:25.564Z,18.30
2022-11-03T16:21:55.683Z,18.31
2022-11-03T16:24:33.338Z,18.33
2022-11-03T16:27:05.692Z,18.29
2022-11-03T16:29:35.785Z,18.36
2022-11-03T16:32:05.840Z,18.29
2022-11-03T16:34:38.581Z,18.29
2022-11-03T16:37:08.584Z,18.32
2022-11-03T16:39:39.408Z,18.33
2022-11-03T16:42:09.470Z,18.26
2022-11-03T16:44:39.548Z,18.23
2022-11-03T16:47:09.603Z,18.21
2022-11-03T16:49:43.091Z,18.30
2022-11-03T16:52:13.140Z,18.22
2022-11-03T16:54:43.137Z,18.31
2022-11-03T16:57:13.187Z,18.30
2022-11-03T16:59:44.230Z,18.30
2022-11-03T17:02:16.653Z,18.23
2022-11-03T17:04:50.607Z,18.31
2022-11-03T17:07:22.577Z,18.27
2022-11-03T17:09:53.596Z,18.14
2022-11-03T17:12:24.615Z,18.23
2022-11-03T17:14:56.931Z,18.24
2022-11-03T17:17:28.298Z,18.25
2022-11-03T17:20:02.056Z,18.29
2022-11-03T17:22:32.419Z,18.28
2022-11-03T17:25:02.542Z,18.15
2022-11-03T17:27:40.612Z,18.08
2022-11-03T17:30:15.675Z,18.23
2022-11-03T17:32:46.892Z,18.19
2022-11-03T17:35:22.583Z,18.20
2022-11-03T17:37:53.169Z,18.14
2022-11-03T17:40:25.509Z,18.16
2022-11-03T17:42:55.896Z,18.13
2022-11-03T17:45:29.099Z,17.96
2022-11-03T17:47:59.259Z,18.06
2022-11-03T17:50:31.931Z,18.04
2022-11-03T17:53:02.030Z,18.00
2022-11-03T17:55:34.149Z,18.02
2022-11-03T17:58:06.275Z,17.97
2022-11-03T18:00:36.874Z,17.98
2022-11-03T18:03:09.787Z,17.99
2022-11-03T18:05:42.648Z,17.94
2022-11-03T18:08:15.035Z,17.97
2022-11-03T18:10:46.467Z,17.92
2022-11-03T18:13:18.384Z,17.87
2022-11-03T18:15:50.713Z,17.94
2022-11-03T18:18:23.716Z,17.89
2022-11-03T18:20:57.642Z,17.48
2022-11-03T18:23:29.309Z,17.63
2022-11-03T18:25:59.891Z,17.41
2022-11-03T18:28:30.271Z,17.12
2022-11-03T18:31:00.458Z,17.14
2022-11-03T18:33:34.201Z,16.95
2022-11-03T18:36:09.518Z,17.30
2022-11-03T18:38:42.956Z,17.33
2022-11-03T18:41:36.236Z,16.98
2022-11-03T18:44:12.880Z,17.14
2022-11-03T18:46:43.083Z,16.94
2022-11-03T18:49:13.508Z,17.16
2022-11-03T18:51:51.175Z,17.28
2022-11-03T18:54:23.609Z,17.23
2022-11-03T18:56:56.445Z,17.16
2022-11-03T18:59:29.686Z,17.26
2022-11-03T19:01:59.902Z,17.43
2022-11-03T19:04:32.053Z,17.41
2022-11-03T19:07:08.467Z,17.28
2022-11-03T19:09:38.604Z,17.33
2022-11-03T19:12:09.764Z,17.37
2022-11-03T19:14:43.033Z,17.09
2022-11-03T19:17:22.814Z,16.99
2022-11-03T19:19:54.396Z,17.24
2022-11-03T19:22:27.102Z,17.16
2022-11-03T19:24:57.125Z,17.02
2022-11-03T19:27:30.088Z,16.90
2022-11-03T19:30:04.065Z,16.64
2022-11-03T19:32:37.522Z,16.90
2022-11-03T19:35:10.388Z,16.74
2022-11-03T19:37:43.592Z,17.03
2022-11-03T19:40:17.026Z,17.13
2022-11-03T19:42:45.612Z,16.98
2022-11-03T19:45:18.294Z,17.13
2022-11-03T19:48:22.737Z,17.10
2022-11-03T19:50:41.999Z,17.15
2022-11-03T19:53:19.587Z,17.05
2022-11-03T19:55:50.005Z,16.87
2022-11-03T19:58:21.830Z,16.79
2022-11-03T20:00:53.273Z,16.90
2022-11-03T20:03:23.718Z,17.07
2022-11-03T20:05:56.793Z,17.13
2022-11-03T20:08:32.457Z,17.18
2022-11-03T20:11:02.633Z,17.16
2022-11-03T20:13:40.291Z,17.05
2022-11-03T20:16:15.493Z,17.08
2022-11-03T20:18:45.815Z,17.15
2022-11-03T20:21:18.840Z,17.10
2022-11-03T20:23:53.135Z,16.84
2022-11-03T20:26:25.359Z,17.01
2022-11-03T20:28:58.018Z,16.79
2022-11-03T20:31:29.337Z,16.57
2022-11-03T20:33:59.448Z,16.37
2022-11-03T20:36:29.565Z,16.13
2022-11-03T20:39:04.519Z,15.95
2022-11-03T20:41:35.664Z,16.10
2022-11-03T20:44:05.919Z,16.10
2022-11-03T20:46:36.778Z,15.99
2022-11-03T20:49:07.407Z,16.16
2022-11-03T20:51:41.010Z,16.33
2022-11-03T20:54:18.701Z,16.55
2022-11-03T20:56:49.207Z,16.85
2022-11-03T20:59:23.316Z,16.87
2022-11-03T21:01:54.459Z,16.88
2022-11-03T21:04:24.665Z,16.71
2022-11-03T21:06:54.786Z,16.83
2022-11-03T21:09:27.539Z,17.12
2022-11-03T21:11:57.774Z,17.18
2022-11-03T21:14:30.689Z,17.16
2022-11-03T21:17:13.240Z,17.07
2022-11-03T21:19:55.776Z,17.18
2022-11-03T21:25:22.067Z,17.33
2022-11-03T21:27:52.214Z,17.43
2022-11-03T21:30:22.666Z,17.39
2022-11-03T21:32:53.039Z,17.46
2022-11-03T21:35:24.738Z,17.39
2022-11-03T21:37:54.889Z,17.59
2022-11-03T21:40:27.627Z,17.59
2022-11-03T21:43:10.273Z,17.56
2022-11-03T21:45:40.484Z,17.47
2022-11-03T21:48:23.224Z,17.27
2022-11-03T21:50:53.893Z,17.32
2022-11-03T21:53:24.092Z,16.96
2022-11-03T21:55:56.766Z,16.99
2022-11-03T21:58:26.867Z,17.08
2022-11-03T22:00:56.971Z,17.05
2022-11-03T22:03:29.129Z,17.38
2022-11-03T22:06:02.936Z,17.29
2022-11-03T22:08:33.064Z,17.20
2022-11-03T22:11:18.298Z,17.19
2022-11-03T22:13:48.556Z,17.21
2022-11-03T22:16:31.414Z,16.94
2022-11-03T22:19:13.591Z,16.80
2022-11-03T22:21:55.950Z,16.75
2022-11-03T22:24:38.426Z,16.65
2022-11-03T22:27:11.119Z,16.72
2022-11-03T22:29:53.652Z,16.63
2022-11-03T22:32:23.831Z,16.71
2022-11-03T22:35:06.223Z,16.65
2022-11-03T22:40:17.757Z,16.81
2022-11-03T22:43:02.859Z,16.67
2022-11-03T22:45:45.272Z,16.69
2022-11-03T22:48:15.749Z,16.56
2022-11-03T22:50:45.799Z,16.46
2022-11-03T22:53:28.214Z,16.57
2022-11-03T22:55:58.289Z,16.55
2022-11-03T22:58:31.161Z,16.48
2022-11-03T23:01:05.076Z,16.34
2022-11-03T23:03:35.928Z,16.61
2022-11-03T23:06:07.272Z,16.79
2022-11-03T23:08:39.037Z,16.98
2022-11-03T23:11:16.268Z,17.11
2022-11-03T23:13:50.636Z,17.11
2022-11-03T23:16:23.172Z,16.77
2022-11-03T23:19:05.916Z,16.65
2022-11-03T23:21:37.508Z,16.65
2022-11-03T23:24:20.482Z,16.59
2022-11-03T23:26:50.944Z,16.65
2022-11-03T23:29:24.361Z,16.74
2022-11-03T23:31:54.699Z,17.03
2022-11-03T23:34:25.162Z,17.37
2022-11-03T23:36:55.585Z,17.42
2022-11-03T23:39:26.111Z,17.18
2022-11-03T23:41:56.529Z,17.15
2022-11-03T23:44:49.213Z,17.14
2022-11-03T23:47:31.800Z,17.06
2022-11-03T23:50:01.828Z,16.95
2022-11-03T23:52:31.884Z,16.89
2022-11-03T23:55:02.014Z,16.91
2022-11-03T23:57:44.403Z,16.98
